sensor_id;sensor_type;location;lat;lon;timestamp;pressure;altitude;pressure_sealevel;temperature;humidity
44001;BME280;29660;42.892;24.710;2023-01-28T00:02:58;96443.63;;;0.80;100.00
44001;BME280;29660;42.892;24.710;2023-01-28T00:08:02;96204.59;;;-0.70;100.00
44001;BME280;29660;42.892;24.710;2023-01-28T00:13:05;96412.00;;;0.41;100.00
44001;BME280;29660;42.892;24.710;2023-01-28T00:18:08;96227.91;;;-0.97;100.00
44001;BME280;29660;42.892;24.710;2023-01-28T00:23:10;96459.75;;;0.72;100.00
44001;BME280;29660;42.892;24.710;2023-01-28T00:28:12;96482.53;;;0.83;100.00
44001;BME280;29660;42.892;24.710;2023-01-28T00:33:14;96221.66;;;-0.96;100.00
44001;BME280;29660;42.892;24.710;2023-01-28T00:38:17;96173.41;;;-1.29;100.00
44001;BME280;29660;42.892;24.710;2023-01-28T00:43:20;96219.31;;;-1.09;100.00
44001;BME280;29660;42.892;24.710;2023-01-28T00:48:22;96394.28;;;0.03;100.00
44001;BME280;29660;42.892;24.710;2023-01-28T00:53:24;96389.22;;;0.13;100.00
44001;BME280;29660;42.892;24.710;2023-01-28T00:58:26;96150.00;;;-1.47;100.00
44001;BME280;29660;42.892;24.710;2023-01-28T01:03:28;96459.75;;;0.55;100.00
44001;BME280;29660;42.892;24.710;2023-01-28T01:08:30;96342.22;;;-0.05;100.00
44001;BME280;29660;42.892;24.710;2023-01-28T01:13:41;96257.53;;;-0.68;100.00
44001;BME280;29660;42.892;24.710;2023-01-28T01:18:43;96465.22;;;0.70;100.00
44001;BME280;29660;42.892;24.710;2023-01-28T01:23:47;96478.69;;;0.74;100.00
44001;BME280;29660;42.892;24.710;2023-01-28T01:28:50;96257.09;;;-0.48;100.00
44001;BME280;29660;42.892;24.710;2023-01-28T01:33:52;96216.72;;;-0.81;100.00
44001;BME280;29660;42.892;24.710;2023-01-28T01:38:55;96520.00;;;0.79;100.00
44001;BME280;29660;42.892;24.710;2023-01-28T01:44:00;96104.63;;;-1.81;100.00
44001;BME280;29660;42.892;24.710;2023-01-28T01:54:14;96495.72;;;0.71;100.00
44001;BME280;29660;42.892;24.710;2023-01-28T01:59:22;96354.97;;;-0.26;100.00
44001;BME280;29660;42.892;24.710;2023-01-28T02:04:28;96511.59;;;0.65;100.00
44001;BME280;29660;42.892;24.710;2023-01-28T02:09:34;96253.41;;;-1.04;100.00
44001;BME280;29660;42.892;24.710;2023-01-28T02:14:49;96381.94;;;-0.13;100.00
44001;BME280;29660;42.892;24.710;2023-01-28T02:30:20;96515.25;;;0.64;100.00
44001;BME280;29660;42.892;24.710;2023-01-28T02:35:28;96385.66;;;-0.09;100.00
44001;BME280;29660;42.892;24.710;2023-01-28T02:40:38;96451.41;;;0.30;100.00
44001;BME280;29660;42.892;24.710;2023-01-28T02:57:14;96550.72;;;0.66;100.00
44001;BME280;29660;42.892;24.710;2023-01-28T03:02:51;96524.09;;;0.46;100.00
44001;BME280;29660;42.892;24.710;2023-01-28T03:07:55;96370.09;;;-0.56;100.00
44001;BME280;29660;42.892;24.710;2023-01-28T03:12:58;96494.53;;;0.22;100.00
44001;BME280;29660;42.892;24.710;2023-01-28T03:18:23;96250.06;;;-1.40;100.00
44001;BME280;29660;42.892;24.710;2023-01-28T03:29:42;96192.91;;;-1.83;100.00
44001;BME280;29660;42.892;24.710;2023-01-28T03:35:06;96274.63;;;-1.17;100.00
44001;BME280;29660;42.892;24.710;2023-01-28T03:40:29;96286.84;;;-1.06;100.00
44001;BME280;29660;42.892;24.710;2023-01-28T03:45:31;96250.94;;;-1.23;100.00
44001;BME280;29660;42.892;24.710;2023-01-28T03:50:35;96312.53;;;-0.80;100.00
44001;BME280;29660;42.892;24.710;2023-01-28T03:55:37;96284.69;;;-0.86;100.00
44001;BME280;29660;42.892;24.710;2023-01-28T04:00:40;96584.59;;;0.96;100.00
44001;BME280;29660;42.892;24.710;2023-01-28T04:06:00;96342.88;;;-0.55;100.00
44001;BME280;29660;42.892;24.710;2023-01-28T04:11:35;96341.91;;;-0.78;100.00
44001;BME280;29660;42.892;24.710;2023-01-28T04:16:40;96542.34;;;0.53;100.00
44001;BME280;29660;42.892;24.710;2023-01-28T04:21:46;96283.34;;;-1.12;100.00
44001;BME280;29660;42.892;24.710;2023-01-28T04:26:49;96371.97;;;-0.40;100.00
44001;BME280;29660;42.892;24.710;2023-01-28T04:31:52;96372.69;;;-0.44;100.00
44001;BME280;29660;42.892;24.710;2023-01-28T04:37:11;96545.34;;;0.73;100.00
44001;BME280;29660;42.892;24.710;2023-01-28T04:42:20;96606.13;;;1.10;100.00
44001;BME280;29660;42.892;24.710;2023-01-28T04:47:41;96579.53;;;0.78;100.00
44001;BME280;29660;42.892;24.710;2023-01-28T04:53:18;96526.69;;;0.58;100.00
44001;BME280;29660;42.892;24.710;2023-01-28T04:58:40;96344.69;;;-0.56;100.00
44001;BME280;29660;42.892;24.710;2023-01-28T05:03:47;96617.84;;;1.19;100.00
44001;BME280;29660;42.892;24.710;2023-01-28T05:08:58;96418.41;;;-0.12;100.00
44001;BME280;29660;42.892;24.710;2023-01-28T05:14:01;96612.72;;;1.13;100.00
44001;BME280;29660;42.892;24.710;2023-01-28T05:19:14;96616.38;;;1.12;100.00
44001;BME280;29660;42.892;24.710;2023-01-28T05:24:19;96650.41;;;1.18;100.00
44001;BME280;29660;42.892;24.710;2023-01-28T05:29:22;96588.78;;;0.81;100.00
44001;BME280;29660;42.892;24.710;2023-01-28T05:34:24;96359.19;;;-0.77;100.00
44001;BME280;29660;42.892;24.710;2023-01-28T05:39:28;96436.69;;;-0.40;100.00
44001;BME280;29660;42.892;24.710;2023-01-28T05:44:30;96667.09;;;1.12;100.00
44001;BME280;29660;42.892;24.710;2023-01-28T05:49:48;96681.34;;;1.16;100.00
44001;BME280;29660;42.892;24.710;2023-01-28T05:55:09;96598.56;;;0.57;100.00
44001;BME280;29660;42.892;24.710;2023-01-28T06:00:12;96681.41;;;0.93;100.00
44001;BME280;29660;42.892;24.710;2023-01-28T06:05:16;96427.97;;;-0.69;100.00
44001;BME280;29660;42.892;24.710;2023-01-28T06:10:18;96648.31;;;0.52;100.00
44001;BME280;29660;42.892;24.710;2023-01-28T06:15:22;96694.94;;;0.61;100.00
44001;BME280;29660;42.892;24.710;2023-01-28T06:20:34;96685.84;;;0.52;100.00
44001;BME280;29660;42.892;24.710;2023-01-28T06:25:36;96451.16;;;-1.08;100.00
44001;BME280;29660;42.892;24.710;2023-01-28T06:30:43;96675.59;;;0.15;100.00
44001;BME280;29660;42.892;24.710;2023-01-28T06:35:48;96663.59;;;0.08;100.00
44001;BME280;29660;42.892;24.710;2023-01-28T06:40:53;96463.00;;;-1.17;100.00
44001;BME280;29660;42.892;24.710;2023-01-28T06:45:57;96764.09;;;0.55;100.00
44001;BME280;29660;42.892;24.710;2023-01-28T06:50:59;96749.50;;;0.59;100.00
44001;BME280;29660;42.892;24.710;2023-01-28T06:56:01;96686.41;;;0.19;100.00
44001;BME280;29660;42.892;24.710;2023-01-28T07:01:03;96753.59;;;0.79;100.00
44001;BME280;29660;42.892;24.710;2023-01-28T07:06:05;96742.50;;;0.88;100.00
44001;BME280;29660;42.892;24.710;2023-01-28T07:11:07;96687.28;;;0.71;100.00
44001;BME280;29660;42.892;24.710;2023-01-28T07:16:09;96524.25;;;-0.25;100.00
44001;BME280;29660;42.892;24.710;2023-01-28T07:21:11;96487.03;;;-0.50;100.00
44001;BME280;29660;42.892;24.710;2023-01-28T07:26:13;96489.41;;;-0.60;100.00
44001;BME280;29660;42.892;24.710;2023-01-28T07:31:16;96746.63;;;1.25;100.00
44001;BME280;29660;42.892;24.710;2023-01-28T07:36:19;96764.41;;;1.46;100.00
44001;BME280;29660;42.892;24.710;2023-01-28T07:41:21;96489.72;;;-0.10;100.00
44001;BME280;29660;42.892;24.710;2023-01-28T07:46:23;96489.00;;;-0.05;100.00
44001;BME280;29660;42.892;24.710;2023-01-28T07:51:25;96769.25;;;1.83;100.00
44001;BME280;29660;42.892;24.710;2023-01-28T07:56:29;96497.50;;;0.26;100.00
44001;BME280;29660;42.892;24.710;2023-01-28T08:01:32;96698.47;;;1.64;100.00
44001;BME280;29660;42.892;24.710;2023-01-28T08:06:34;96721.63;;;1.96;100.00
44001;BME280;29660;42.892;24.710;2023-01-28T08:11:38;96780.47;;;2.24;100.00
44001;BME280;29660;42.892;24.710;2023-01-28T08:16:40;96541.84;;;0.67;100.00
44001;BME280;29660;42.892;24.710;2023-01-28T08:21:42;96716.53;;;1.89;100.00
44001;BME280;29660;42.892;24.710;2023-01-28T08:26:47;96743.31;;;2.03;100.00
44001;BME280;29660;42.892;24.710;2023-01-28T08:31:49;96729.03;;;1.82;100.00
44001;BME280;29660;42.892;24.710;2023-01-28T08:36:51;96790.50;;;2.27;100.00
44001;BME280;29660;42.892;24.710;2023-01-28T08:41:53;96787.16;;;2.31;100.00
44001;BME280;29660;42.892;24.710;2023-01-28T08:46:56;96658.06;;;1.37;100.00
44001;BME280;29660;42.892;24.710;2023-01-28T08:51:58;96536.84;;;0.54;100.00
44001;BME280;29660;42.892;24.710;2023-01-28T08:57:02;96794.13;;;2.20;100.00
44001;BME280;29660;42.892;24.710;2023-01-28T09:02:04;96533.22;;;0.55;100.00
44001;BME280;29660;42.892;24.710;2023-01-28T09:07:06;96795.19;;;2.08;100.00
44001;BME280;29660;42.892;24.710;2023-01-28T09:12:08;96775.13;;;2.18;100.00
44001;BME280;29660;42.892;24.710;2023-01-28T09:17:14;96793.16;;;2.27;100.00
44001;BME280;29660;42.892;24.710;2023-01-28T09:22:17;96782.13;;;2.46;100.00
44001;BME280;29660;42.892;24.710;2023-01-28T09:27:19;96524.06;;;1.03;99.87
44001;BME280;29660;42.892;24.710;2023-01-28T09:32:21;96519.75;;;0.97;98.48
44001;BME280;29660;42.892;24.710;2023-01-28T09:37:26;96516.75;;;1.05;100.00
44001;BME280;29660;42.892;24.710;2023-01-28T09:42:38;96567.63;;;1.66;97.44
44001;BME280;29660;42.892;24.710;2023-01-28T09:47:52;96766.53;;;2.95;98.72
44001;BME280;29660;42.892;24.710;2023-01-28T09:53:01;96737.16;;;2.87;97.73
44001;BME280;29660;42.892;24.710;2023-01-28T09:58:10;96798.69;;;2.98;100.00
44001;BME280;29660;42.892;24.710;2023-01-28T10:19:35;96561.19;;;1.96;97.45
44001;BME280;29660;42.892;24.710;2023-01-28T10:24:44;96757.34;;;3.20;97.42
44001;BME280;29660;42.892;24.710;2023-01-28T10:29:52;96529.31;;;1.37;99.73
44001;BME280;29660;42.892;24.710;2023-01-28T10:34:56;96530.44;;;1.58;100.00
44001;BME280;29660;42.892;24.710;2023-01-28T10:40:04;96563.38;;;1.82;99.55
44001;BME280;29660;42.892;24.710;2023-01-28T10:45:17;96796.91;;;3.42;99.37
44001;BME280;29660;42.892;24.710;2023-01-28T10:50:26;96783.03;;;3.08;100.00
44001;BME280;29660;42.892;24.710;2023-01-28T10:55:29;96779.16;;;3.37;99.01
44001;BME280;29660;42.892;24.710;2023-01-28T11:00:36;96658.28;;;2.53;99.65
44001;BME280;29660;42.892;24.710;2023-01-28T11:05:50;96794.56;;;3.24;99.00
44001;BME280;29660;42.892;24.710;2023-01-28T11:10:53;96731.63;;;3.27;97.71
44001;BME280;29660;42.892;24.710;2023-01-28T11:16:05;96794.00;;;3.43;98.29
44001;BME280;29660;42.892;24.710;2023-01-28T11:21:15;96535.94;;;1.95;97.92
44001;BME280;29660;42.892;24.710;2023-01-28T11:26:24;96535.59;;;2.08;97.62
44001;BME280;29660;42.892;24.710;2023-01-28T11:31:27;96580.34;;;2.52;96.48
44001;BME280;29660;42.892;24.710;2023-01-28T11:36:31;96792.22;;;3.98;93.59
44001;BME280;29660;42.892;24.710;2023-01-28T11:41:37;96762.66;;;3.47;96.89
44001;BME280;29660;42.892;24.710;2023-01-28T12:08:23;96649.72;;;2.85;96.44
44001;BME280;29660;42.892;24.710;2023-01-28T12:29:40;96798.09;;;3.56;96.73
44001;BME280;29660;42.892;24.710;2023-01-28T12:50:40;96754.41;;;3.65;96.30
44001;BME280;29660;42.892;24.710;2023-01-28T12:55:53;96460.06;;;1.82;94.94
44001;BME280;29660;42.892;24.710;2023-01-28T13:01:03;96774.09;;;3.80;96.15
44001;BME280;29660;42.892;24.710;2023-01-28T13:06:30;96691.72;;;3.18;97.54
44001;BME280;29660;42.892;24.710;2023-01-28T13:11:34;96536.22;;;2.15;95.25
44001;BME280;29660;42.892;24.710;2023-01-28T13:16:37;96807.38;;;3.59;97.42
44001;BME280;29660;42.892;24.710;2023-01-28T13:21:39;96638.38;;;2.40;100.00
44001;BME280;29660;42.892;24.710;2023-01-28T13:26:56;96798.41;;;3.60;98.02
44001;BME280;29660;42.892;24.710;2023-01-28T13:32:01;96525.31;;;1.85;97.18
44001;BME280;29660;42.892;24.710;2023-01-28T13:37:29;96853.72;;;3.55;99.19
44001;BME280;29660;42.892;24.710;2023-01-28T13:42:31;96852.84;;;3.49;96.23
44001;BME280;29660;42.892;24.710;2023-01-28T13:47:35;96834.25;;;3.17;98.13
44001;BME280;29660;42.892;24.710;2023-01-28T13:52:50;96730.72;;;2.56;97.78
44001;BME280;29660;42.892;24.710;2023-01-28T14:09:29;96876.25;;;3.45;96.58
44001;BME280;29660;42.892;24.710;2023-01-28T14:19:36;96351.56;;;0.19;95.50
44001;BME280;29660;42.892;24.710;2023-01-28T14:24:39;96863.19;;;3.34;96.04
44001;BME280;29660;42.892;24.710;2023-01-28T14:30:13;96840.09;;;3.02;98.11
44001;BME280;29660;42.892;24.710;2023-01-28T14:35:23;96824.38;;;2.90;97.08
44001;BME280;29660;42.892;24.710;2023-01-28T14:40:28;96873.63;;;3.24;98.22
44001;BME280;29660;42.892;24.710;2023-01-28T15:01:47;96675.91;;;1.35;98.30
44001;BME280;29660;42.892;24.710;2023-01-28T15:06:49;96771.00;;;1.77;99.27
44001;BME280;29660;42.892;24.710;2023-01-28T15:11:55;96716.81;;;1.31;99.85
44001;BME280;29660;42.892;24.710;2023-01-28T15:16:59;96701.84;;;1.03;99.29
44001;BME280;29660;42.892;24.710;2023-01-28T15:22:06;96605.78;;;0.38;100.00
44001;BME280;29660;42.892;24.710;2023-01-28T15:27:28;96898.94;;;1.60;100.00
44001;BME280;29660;42.892;24.710;2023-01-28T15:32:31;96765.34;;;0.88;100.00
44001;BME280;29660;42.892;24.710;2023-01-28T15:37:33;96888.28;;;1.78;100.00
44001;BME280;29660;42.892;24.710;2023-01-28T15:42:35;96730.75;;;0.79;100.00
44001;BME280;29660;42.892;24.710;2023-01-28T15:47:39;96921.13;;;2.04;100.00
44001;BME280;29660;42.892;24.710;2023-01-28T15:52:41;96933.97;;;2.01;100.00
44001;BME280;29660;42.892;24.710;2023-01-28T15:57:45;96931.19;;;2.07;100.00
44001;BME280;29660;42.892;24.710;2023-01-28T16:03:08;96910.50;;;1.99;100.00
44001;BME280;29660;42.892;24.710;2023-01-28T16:08:19;96686.75;;;0.46;100.00
44001;BME280;29660;42.892;24.710;2023-01-28T16:13:27;96839.84;;;1.34;100.00
44001;BME280;29660;42.892;24.710;2023-01-28T16:18:52;96950.38;;;2.08;100.00
44001;BME280;29660;42.892;24.710;2023-01-28T16:24:21;96952.19;;;2.19;100.00
44001;BME280;29660;42.892;24.710;2023-01-28T16:29:25;96949.34;;;2.20;100.00
44001;BME280;29660;42.892;24.710;2023-01-28T16:34:30;96884.78;;;1.49;100.00
44001;BME280;29660;42.892;24.710;2023-01-28T16:39:34;96535.94;;;-1.09;100.00
44001;BME280;29660;42.892;24.710;2023-01-28T16:44:36;96904.91;;;1.43;100.00
44001;BME280;29660;42.892;24.710;2023-01-28T16:49:39;96834.38;;;1.00;100.00
44001;BME280;29660;42.892;24.710;2023-01-28T16:54:42;96464.44;;;-1.33;100.00
44001;BME280;29660;42.892;24.710;2023-01-28T16:59:46;96877.53;;;1.28;100.00
44001;BME280;29660;42.892;24.710;2023-01-28T17:04:48;96902.97;;;1.51;100.00
44001;BME280;29660;42.892;24.710;2023-01-28T17:09:50;96899.41;;;1.57;100.00
44001;BME280;29660;42.892;24.710;2023-01-28T17:14:52;96743.78;;;0.39;100.00
44001;BME280;29660;42.892;24.710;2023-01-28T17:19:54;96950.16;;;1.57;100.00
44001;BME280;29660;42.892;24.710;2023-01-28T17:24:56;96967.41;;;1.53;100.00
44001;BME280;29660;42.892;24.710;2023-01-28T17:29:58;97006.00;;;1.88;100.00
44001;BME280;29660;42.892;24.710;2023-01-28T17:35:00;96886.09;;;1.23;100.00
44001;BME280;29660;42.892;24.710;2023-01-28T17:40:02;96722.44;;;0.12;100.00
44001;BME280;29660;42.892;24.710;2023-01-28T17:45:04;96750.75;;;0.33;100.00
44001;BME280;29660;42.892;24.710;2023-01-28T17:50:07;96798.88;;;0.62;100.00
44001;BME280;29660;42.892;24.710;2023-01-28T17:55:09;96967.19;;;1.55;100.00
44001;BME280;29660;42.892;24.710;2023-01-28T18:00:13;96752.28;;;-0.01;100.00
44001;BME280;29660;42.892;24.710;2023-01-28T18:05:15;97007.84;;;1.64;100.00
44001;BME280;29660;42.892;24.710;2023-01-28T18:10:17;97005.13;;;1.70;100.00
44001;BME280;29660;42.892;24.710;2023-01-28T18:15:19;97013.69;;;1.54;100.00
44001;BME280;29660;42.892;24.710;2023-01-28T18:20:22;96981.91;;;1.20;100.00
44001;BME280;29660;42.892;24.710;2023-01-28T18:25:24;96951.72;;;0.88;100.00
44001;BME280;29660;42.892;24.710;2023-01-28T18:30:25;96793.84;;;-0.16;100.00
44001;BME280;29660;42.892;24.710;2023-01-28T18:35:29;96738.19;;;-0.42;100.00
44001;BME280;29660;42.892;24.710;2023-01-28T18:40:32;97031.75;;;1.39;100.00
44001;BME280;29660;42.892;24.710;2023-01-28T18:45:37;96771.59;;;-0.26;100.00
44001;BME280;29660;42.892;24.710;2023-01-28T18:50:39;97003.16;;;1.19;100.00
44001;BME280;29660;42.892;24.710;2023-01-28T18:55:42;96820.09;;;-0.05;100.00
44001;BME280;29660;42.892;24.710;2023-01-28T19:00:45;97040.38;;;1.16;100.00
44001;BME280;29660;42.892;24.710;2023-01-28T19:05:47;96875.97;;;0.08;100.00
44001;BME280;29660;42.892;24.710;2023-01-28T19:10:55;96990.72;;;0.72;100.00
44001;BME280;29660;42.892;24.710;2023-01-28T19:16:02;96749.97;;;-0.81;100.00
44001;BME280;29660;42.892;24.710;2023-01-28T19:21:05;97025.63;;;1.03;100.00
44001;BME280;29660;42.892;24.710;2023-01-28T19:26:08;96959.44;;;0.59;100.00
44001;BME280;29660;42.892;24.710;2023-01-28T19:31:10;96877.13;;;0.00;100.00
44001;BME280;29660;42.892;24.710;2023-01-28T19:36:13;97075.09;;;1.06;100.00
44001;BME280;29660;42.892;24.710;2023-01-28T19:41:15;97020.56;;;1.02;100.00
44001;BME280;29660;42.892;24.710;2023-01-28T19:46:18;96760.94;;;-0.72;100.00
44001;BME280;29660;42.892;24.710;2023-01-28T19:51:20;97059.44;;;1.11;100.00
44001;BME280;29660;42.892;24.710;2023-01-28T19:56:24;97006.28;;;0.86;100.00
44001;BME280;29660;42.892;24.710;2023-01-28T20:01:26;96832.31;;;-0.29;100.00
44001;BME280;29660;42.892;24.710;2023-01-28T20:06:32;96804.94;;;-0.63;100.00
44001;BME280;29660;42.892;24.710;2023-01-28T20:11:35;96991.16;;;0.69;100.00
44001;BME280;29660;42.892;24.710;2023-01-28T20:16:37;97058.41;;;1.12;100.00
44001;BME280;29660;42.892;24.710;2023-01-28T20:21:39;97049.25;;;1.03;100.00
44001;BME280;29660;42.892;24.710;2023-01-28T20:26:42;97014.63;;;0.83;100.00
44001;BME280;29660;42.892;24.710;2023-01-28T20:31:45;97072.97;;;1.27;100.00
44001;BME280;29660;42.892;24.710;2023-01-28T20:37:01;97088.03;;;1.31;100.00
44001;BME280;29660;42.892;24.710;2023-01-28T20:42:18;96860.31;;;-0.11;100.00
44001;BME280;29660;42.892;24.710;2023-01-28T20:47:20;97013.81;;;0.94;100.00
44001;BME280;29660;42.892;24.710;2023-01-28T20:52:22;96983.97;;;0.65;100.00
44001;BME280;29660;42.892;24.710;2023-01-28T20:57:24;96629.09;;;-1.75;100.00
44001;BME280;29660;42.892;24.710;2023-01-28T21:02:25;96831.22;;;-0.39;100.00
44001;BME280;29660;42.892;24.710;2023-01-28T21:07:27;96865.50;;;-0.22;100.00
44001;BME280;29660;42.892;24.710;2023-01-28T21:12:29;96983.94;;;0.53;100.00
44001;BME280;29660;42.892;24.710;2023-01-28T21:17:32;96871.06;;;-0.31;100.00
44001;BME280;29660;42.892;24.710;2023-01-28T21:22:34;97116.56;;;1.16;100.00
44001;BME280;29660;42.892;24.710;2023-01-28T21:27:37;96865.22;;;-0.33;100.00
44001;BME280;29660;42.892;24.710;2023-01-28T21:32:39;97118.78;;;1.01;100.00
44001;BME280;29660;42.892;24.710;2023-01-28T21:37:45;97135.53;;;1.18;100.00
44001;BME280;29660;42.892;24.710;2023-01-28T21:42:53;97051.16;;;0.66;100.00
44001;BME280;29660;42.892;24.710;2023-01-28T21:47:55;97052.13;;;0.71;100.00
44001;BME280;29660;42.892;24.710;2023-01-28T21:52:57;97132.34;;;1.28;100.00
44001;BME280;29660;42.892;24.710;2023-01-28T21:57:59;97097.41;;;0.97;100.00
44001;BME280;29660;42.892;24.710;2023-01-28T22:03:21;96849.53;;;-0.69;100.00
44001;BME280;29660;42.892;24.710;2023-01-28T22:08:25;96919.22;;;-0.13;100.00
44001;BME280;29660;42.892;24.710;2023-01-28T22:13:28;97061.53;;;0.61;100.00
44001;BME280;29660;42.892;24.710;2023-01-28T22:18:31;97100.56;;;1.17;100.00
44001;BME280;29660;42.892;24.710;2023-01-28T22:23:33;97151.91;;;1.32;100.00
44001;BME280;29660;42.892;24.710;2023-01-28T22:28:36;96862.66;;;-0.39;100.00
44001;BME280;29660;42.892;24.710;2023-01-28T22:33:39;96882.81;;;-0.21;100.00
44001;BME280;29660;42.892;24.710;2023-01-28T22:38:42;96849.06;;;-0.48;100.00
44001;BME280;29660;42.892;24.710;2023-01-28T22:43:45;96874.81;;;-0.27;100.00
44001;BME280;29660;42.892;24.710;2023-01-28T22:48:48;97144.13;;;1.37;100.00
44001;BME280;29660;42.892;24.710;2023-01-28T22:53:51;97108.97;;;1.38;100.00
44001;BME280;29660;42.892;24.710;2023-01-28T22:58:54;96855.03;;;-0.41;100.00
44001;BME280;29660;42.892;24.710;2023-01-28T23:03:56;97071.97;;;1.09;100.00
44001;BME280;29660;42.892;24.710;2023-01-28T23:08:58;96813.97;;;-0.59;100.00
44001;BME280;29660;42.892;24.710;2023-01-28T23:14:02;97028.34;;;0.66;100.00
44001;BME280;29660;42.892;24.710;2023-01-28T23:19:22;96655.88;;;-1.80;100.00
44001;BME280;29660;42.892;24.710;2023-01-28T23:24:46;96842.25;;;-0.49;100.00
44001;BME280;29660;42.892;24.710;2023-01-28T23:29:47;96892.00;;;-0.31;100.00
44001;BME280;29660;42.892;24.710;2023-01-28T23:34:50;97103.97;;;1.06;100.00
44001;BME280;29660;42.892;24.710;2023-01-28T23:39:52;97090.44;;;0.91;100.00
44001;BME280;29660;42.892;24.710;2023-01-28T23:44:54;97090.28;;;0.86;100.00
44001;BME280;29660;42.892;24.710;2023-01-28T23:49:55;97104.84;;;1.00;100.00
44001;BME280;29660;42.892;24.710;2023-01-28T23:54:57;96873.16;;;-0.39;100.00
